createdAt,value
2017-04-06T16:23:02.116Z,835
2017-04-06T16:23:30.314Z,820
2017-04-06T16:23:58.587Z,820
2017-04-06T16:24:26.898Z,820
2017-04-06T16:24:55.133Z,815
2017-04-06T16:25:23.396Z,820
2017-04-06T16:25:51.501Z,825
2017-04-06T16:26:19.592Z,820
2017-04-06T16:26:47.776Z,815
2017-04-06T16:27:15.847Z,805
2017-04-06T16:27:44.108Z,795
2017-04-06T16:28:12.612Z,790
2017-04-06T16:28:40.903Z,780
2017-04-06T16:29:09.145Z,755
2017-04-06T16:29:37.356Z,745
2017-04-06T16:30:05.467Z,735
2017-04-06T16:30:33.725Z,710
2017-04-06T16:31:01.858Z,670
2017-04-06T16:31:30.049Z,635
2017-04-06T16:31:58.298Z,600
2017-04-06T16:32:26.348Z,560
2017-04-06T16:32:54.505Z,540
2017-04-06T16:33:22.746Z,530
2017-04-06T16:33:50.766Z,535
2017-04-06T16:34:18.867Z,560
2017-04-06T16:34:46.978Z,570
2017-04-06T16:35:15.209Z,580
2017-04-06T16:35:43.431Z,595
2017-04-06T16:36:11.725Z,575
2017-04-06T16:36:39.883Z,565
2017-04-06T16:37:08.159Z,545
2017-04-06T16:37:36.421Z,530
2017-04-06T16:38:04.754Z,520
2017-04-06T16:38:33.023Z,525
2017-04-06T16:39:01.250Z,530
2017-04-06T16:39:29.463Z,540
2017-04-06T16:39:57.732Z,540
2017-04-06T16:40:26.059Z,550
2017-04-06T16:40:54.786Z,550
2017-04-06T16:41:23.420Z,555
2017-04-06T16:41:51.877Z,550
2017-04-06T16:42:20.379Z,545
2017-04-06T16:42:48.526Z,540
2017-04-06T16:43:16.843Z,530
2017-04-06T16:43:44.958Z,530
2017-04-06T16:44:13.200Z,520
2017-04-06T16:44:41.439Z,520
2017-04-06T16:45:09.667Z,515
2017-04-06T16:45:37.897Z,505
2017-04-06T16:46:06.085Z,475
2017-04-06T16:46:34.564Z,445
2017-04-06T16:47:02.873Z,425
2017-04-06T16:47:30.954Z,420
2017-04-06T16:47:59.226Z,425
2017-04-06T16:48:27.539Z,430
2017-04-06T16:48:55.647Z,445
2017-04-06T16:49:23.836Z,455
2017-04-06T16:49:51.963Z,470
2017-04-06T16:50:20.227Z,485
2017-04-06T16:50:48.560Z,505
2017-04-06T16:51:16.713Z,525
2017-04-06T16:52:04.188Z,570
2017-04-06T16:52:44.972Z,575
2017-04-06T16:53:13.367Z,570
2017-04-06T16:53:42.021Z,580
2017-04-06T16:54:10.164Z,610
2017-04-06T16:54:38.385Z,635
2017-04-06T16:55:06.670Z,650
2017-04-06T16:55:34.963Z,640
2017-04-06T16:56:03.580Z,630
2017-04-06T16:56:31.777Z,620
2017-04-06T16:56:59.963Z,585
2017-04-06T16:57:28.086Z,550
2017-04-06T16:57:56.151Z,525
2017-04-06T16:58:24.573Z,500
2017-04-06T16:58:52.762Z,505
2017-04-06T16:59:20.810Z,510
2017-04-06T16:59:49.111Z,525
2017-04-06T17:00:17.392Z,530
2017-04-06T17:00:45.630Z,520
2017-04-06T17:01:13.835Z,515
2017-04-06T17:01:42.024Z,500
2017-04-06T17:02:10.277Z,495
2017-04-06T17:02:38.502Z,495
2017-04-06T17:03:06.959Z,505
2017-04-06T17:03:35.331Z,510
2017-04-06T17:04:03.402Z,510
2017-04-06T17:04:31.696Z,515
2017-04-06T17:04:59.841Z,500
2017-04-06T17:05:28.111Z,490
2017-04-06T17:05:56.383Z,485
2017-04-06T17:06:24.632Z,470
2017-04-06T17:06:52.695Z,440
2017-04-06T17:07:21.000Z,410
2017-04-06T17:07:49.168Z,405
2017-04-06T17:08:17.214Z,390
2017-04-06T17:08:45.430Z,385
2017-04-06T17:09:13.732Z,380
2017-04-06T17:09:41.909Z,390
2017-04-06T17:10:09.977Z,410
2017-04-06T17:10:38.154Z,425
2017-04-06T17:11:06.387Z,435
2017-04-06T17:11:35.322Z,435
2017-04-06T17:12:03.456Z,420
2017-04-06T17:12:31.670Z,400
2017-04-06T17:12:59.821Z,380
2017-04-06T17:13:28.070Z,370
2017-04-06T17:13:56.296Z,375
2017-04-06T17:14:24.507Z,385
2017-04-06T17:14:52.765Z,385
2017-04-06T17:15:21.106Z,380
2017-04-06T17:15:49.452Z,380
2017-04-06T17:16:17.745Z,370
2017-04-06T17:16:45.996Z,375
2017-04-06T17:17:14.132Z,390
2017-04-06T17:17:42.296Z,425
2017-04-06T17:18:10.652Z,455
2017-04-06T17:18:38.744Z,490
2017-04-06T17:19:06.972Z,535
2017-04-06T17:19:35.104Z,575
2017-04-06T17:20:03.169Z,605
2017-04-06T17:20:31.396Z,635
2017-04-06T17:20:59.437Z,660
2017-04-06T17:21:27.586Z,675
2017-04-06T17:21:55.828Z,685
2017-04-06T17:22:24.134Z,675
2017-04-06T17:22:52.381Z,670
2017-04-06T17:23:20.636Z,660
2017-04-06T17:23:48.908Z,650
2017-04-06T17:24:17.221Z,615
2017-04-06T17:24:45.458Z,610
2017-04-06T17:25:13.421Z,605
2017-04-06T17:25:41.764Z,625
2017-04-06T17:26:10.351Z,600
2017-04-06T17:26:38.702Z,610
2017-04-06T17:27:07.022Z,650
2017-04-06T17:27:35.169Z,675
2017-04-06T17:28:03.267Z,700
2017-04-06T17:28:31.490Z,725
2017-04-06T17:28:59.732Z,735
2017-04-06T17:29:28.028Z,760
2017-04-06T17:29:56.219Z,805
2017-04-06T17:30:24.517Z,845
2017-04-06T17:30:53.124Z,865
2017-04-06T17:31:21.269Z,870
2017-04-06T17:31:49.575Z,880
2017-04-06T17:32:17.775Z,990
2017-04-06T17:32:45.949Z,945
2017-04-06T17:33:14.103Z,945
2017-04-06T17:33:42.376Z,950
2017-04-06T17:34:10.449Z,1120
2017-04-06T17:34:38.432Z,1060
2017-04-06T17:35:06.696Z,1065
2017-04-06T17:35:35.000Z,990
2017-04-06T17:36:03.209Z,975
2017-04-06T17:36:31.595Z,955
2017-04-06T17:36:59.827Z,960
2017-04-06T17:37:27.986Z,955
2017-04-06T17:37:56.300Z,955
2017-04-06T17:38:24.487Z,960
2017-04-06T17:38:52.693Z,945
2017-04-06T17:39:21.135Z,945
2017-04-06T17:39:49.397Z,920
2017-04-06T17:40:17.655Z,915
2017-04-06T17:40:46.063Z,915
2017-04-06T17:41:14.302Z,905
2017-04-06T17:41:42.537Z,905
2017-04-06T17:42:10.670Z,905
2017-04-06T17:42:38.811Z,905
2017-04-06T17:43:07.051Z,905
2017-04-06T17:43:35.323Z,920
2017-04-06T17:44:03.627Z,875
2017-04-06T17:44:31.853Z,870
2017-04-06T17:45:00.087Z,850
2017-04-06T17:45:28.289Z,840
2017-04-06T17:45:56.523Z,825
2017-04-06T17:46:24.709Z,805
2017-04-06T17:46:52.935Z,795
2017-04-06T17:47:21.078Z,780
2017-04-06T17:47:49.285Z,765
2017-04-06T17:48:17.547Z,755
2017-04-06T17:48:45.953Z,735
2017-04-06T17:49:14.130Z,725
2017-04-06T17:49:42.294Z,710
2017-04-06T17:50:10.587Z,705
2017-04-06T17:50:38.764Z,690
2017-04-06T17:51:07.021Z,680
2017-04-06T17:51:35.322Z,670
2017-04-06T17:52:03.432Z,655
2017-04-06T17:52:31.744Z,645
2017-04-06T17:52:59.951Z,640
2017-04-06T17:53:28.059Z,630
2017-04-06T17:53:56.014Z,620
2017-04-06T17:54:24.405Z,615
2017-04-06T17:54:52.530Z,605
2017-04-06T17:55:20.691Z,600
2017-04-06T17:55:48.745Z,595
2017-04-06T17:56:16.968Z,585
2017-04-06T17:56:45.270Z,580
2017-04-06T17:57:13.310Z,575
2017-04-06T17:57:41.418Z,575
2017-04-06T17:58:09.665Z,575
2017-04-06T17:58:38.024Z,575
2017-04-06T17:59:06.137Z,570
2017-04-06T17:59:34.485Z,580
2017-04-06T18:00:02.758Z,595
2017-04-06T18:00:31.083Z,615
2017-04-06T18:00:59.203Z,625
2017-04-06T18:01:27.193Z,645
2017-04-06T18:01:55.940Z,650
2017-04-06T18:02:24.216Z,665
2017-04-06T18:02:52.361Z,685
2017-04-06T18:03:20.627Z,685
2017-04-06T18:03:48.877Z,700
2017-04-06T18:04:17.209Z,710
2017-04-06T18:04:45.431Z,715
2017-04-06T18:05:13.781Z,730
2017-04-06T18:05:41.965Z,740
2017-04-06T18:06:10.060Z,745
2017-04-06T18:06:38.502Z,745
2017-04-06T18:07:06.693Z,740
2017-04-06T18:07:35.003Z,725
2017-04-06T18:08:03.243Z,710
2017-04-06T18:08:31.558Z,685
2017-04-06T18:08:59.882Z,680
2017-04-06T18:09:28.045Z,665
2017-04-06T18:09:56.278Z,650
2017-04-06T18:10:24.635Z,635
2017-04-06T18:10:52.819Z,625
2017-04-06T18:11:20.940Z,615
2017-04-06T18:11:49.134Z,625
2017-04-06T18:12:17.395Z,620
2017-04-06T18:12:45.651Z,620
2017-04-06T18:13:13.931Z,610
2017-04-06T18:13:42.291Z,620
2017-04-06T18:14:10.398Z,615
2017-04-06T18:14:38.556Z,620
2017-04-06T18:15:06.703Z,625
2017-04-06T18:15:35.042Z,640
2017-04-06T18:16:03.481Z,645
2017-04-06T18:16:31.690Z,650
2017-04-06T18:17:00.296Z,660
2017-04-06T18:17:28.422Z,650
2017-04-06T18:17:56.741Z,655
2017-04-06T18:18:24.958Z,665
2017-04-06T18:18:53.294Z,665
2017-04-06T18:19:21.541Z,660
2017-04-06T18:19:49.853Z,660
2017-04-06T18:20:18.756Z,665
2017-04-06T18:20:46.916Z,665
2017-04-06T18:21:15.241Z,665
2017-04-06T18:21:43.409Z,665
2017-04-06T18:22:11.709Z,665
2017-04-06T18:22:39.980Z,675
2017-04-06T18:23:08.640Z,670
2017-04-06T18:23:36.781Z,665
2017-04-06T18:24:04.824Z,660
2017-04-06T18:24:33.039Z,640
2017-04-06T18:25:01.182Z,640
2017-04-06T18:25:29.551Z,630
2017-04-06T18:25:57.626Z,640
2017-04-06T18:26:25.959Z,625
2017-04-06T18:26:54.261Z,635
2017-04-06T18:27:22.542Z,680
2017-04-06T18:27:50.680Z,725
2017-04-06T18:28:18.900Z,755
2017-04-06T18:28:47.472Z,755
2017-04-06T18:29:15.717Z,740
2017-04-06T18:29:44.015Z,715
2017-04-06T18:30:12.245Z,685
2017-04-06T18:30:40.407Z,620
2017-04-06T18:31:08.776Z,575
2017-04-06T18:31:36.878Z,525
2017-04-06T18:32:05.255Z,460
2017-04-06T18:32:33.485Z,410
2017-04-06T18:33:01.957Z,360
2017-04-06T18:33:30.253Z,320
2017-04-06T18:33:58.455Z,285
2017-04-06T18:34:27.398Z,260
2017-04-06T18:34:55.587Z,245
2017-04-06T18:35:23.861Z,240
2017-04-06T18:35:52.177Z,235
2017-04-06T18:36:20.418Z,230
2017-04-06T18:36:48.783Z,220
2017-04-06T18:37:16.786Z,210
2017-04-06T18:37:44.910Z,200
2017-04-06T18:38:13.187Z,195
2017-04-06T18:38:41.429Z,190
2017-04-06T18:39:09.671Z,190
2017-04-06T18:39:37.854Z,175
2017-04-06T18:40:06.194Z,170
2017-04-06T18:40:34.457Z,165
2017-04-06T18:41:02.669Z,170
2017-04-06T18:41:30.863Z,175
2017-04-06T18:41:59.213Z,180
2017-04-06T18:42:27.451Z,180
2017-04-06T18:42:55.676Z,190
2017-04-06T18:43:23.975Z,200
2017-04-06T18:43:52.168Z,220
2017-04-06T18:44:20.410Z,235
2017-04-06T18:44:48.693Z,245
2017-04-06T18:45:16.951Z,255
2017-04-06T18:45:45.209Z,250
2017-04-06T18:46:13.205Z,245
2017-04-06T18:46:41.272Z,245
2017-04-06T18:47:10.238Z,225
2017-04-06T18:47:38.249Z,200
2017-04-06T18:48:06.410Z,180
2017-04-06T18:48:34.644Z,165
2017-04-06T18:49:02.894Z,160
2017-04-06T18:49:31.141Z,160
2017-04-06T18:49:59.459Z,155
2017-04-06T18:50:27.669Z,155
2017-04-06T18:50:55.943Z,155
2017-04-06T18:51:24.246Z,150
2017-04-06T18:51:52.353Z,140
2017-04-06T18:52:20.606Z,135
2017-04-06T18:52:48.679Z,125
2017-04-06T18:53:16.967Z,120
2017-04-06T18:53:45.245Z,110
2017-04-06T18:54:13.708Z,105
2017-04-06T18:54:41.766Z,95
2017-04-06T18:55:09.910Z,90
2017-04-06T18:55:38.180Z,85
2017-04-06T18:56:06.243Z,80
2017-04-06T18:56:34.557Z,75
2017-04-06T18:57:02.708Z,80
2017-04-06T18:57:30.743Z,80
2017-04-06T18:57:58.891Z,85
2017-04-06T18:58:27.143Z,95
2017-04-06T18:58:55.161Z,105
2017-04-06T18:59:23.253Z,115
2017-04-06T18:59:51.274Z,120
2017-04-06T19:00:19.482Z,125
2017-04-06T19:00:47.749Z,130
2017-04-06T19:01:15.888Z,130
2017-04-06T19:01:44.250Z,135
2017-04-06T19:02:12.573Z,140
2017-04-06T19:02:40.820Z,140
2017-04-06T19:03:09.137Z,145
2017-04-06T19:03:37.741Z,145
2017-04-06T19:04:06.004Z,150
2017-04-06T19:04:34.273Z,150
2017-04-06T19:05:02.513Z,155
2017-04-06T19:05:30.811Z,155
2017-04-06T19:05:59.011Z,165
2017-04-06T19:06:27.337Z,160
2017-04-06T19:06:55.416Z,165
2017-04-06T19:07:23.597Z,170
2017-04-06T19:07:51.847Z,170
2017-04-06T19:08:20.041Z,175
2017-04-06T19:08:48.255Z,175
2017-04-06T19:09:16.588Z,175
2017-04-06T19:09:44.939Z,175
2017-04-06T19:10:13.157Z,180
2017-04-06T19:10:41.324Z,180
2017-04-06T19:11:09.502Z,180
2017-04-06T19:11:37.750Z,175
2017-04-06T19:12:05.977Z,170
2017-04-06T19:12:34.234Z,165
2017-04-06T19:13:02.802Z,155
2017-04-06T19:13:31.114Z,150
2017-04-06T19:13:59.398Z,145
2017-04-06T19:14:27.750Z,140
2017-04-06T19:14:55.953Z,140
2017-04-06T19:15:24.229Z,135
2017-04-06T19:15:52.414Z,130
2017-04-06T19:16:20.590Z,125
2017-04-06T19:16:48.784Z,120
2017-04-06T19:17:17.808Z,120
2017-04-06T19:17:46.102Z,115
2017-04-06T19:18:14.258Z,115
2017-04-06T19:18:42.554Z,110
2017-04-06T19:19:10.822Z,105
2017-04-06T19:19:38.962Z,105
2017-04-06T19:20:07.238Z,100
2017-04-06T19:20:35.340Z,100
2017-04-06T19:21:03.491Z,95
2017-04-06T19:21:31.621Z,90
2017-04-06T19:21:59.847Z,90
2017-04-06T19:22:28.180Z,90
2017-04-06T19:22:56.551Z,95
2017-04-06T19:23:24.765Z,105
2017-04-06T19:23:53.087Z,110
2017-04-06T19:24:21.207Z,125
2017-04-06T19:24:49.524Z,140
2017-04-06T19:25:17.688Z,165
2017-04-06T19:25:45.812Z,200
2017-04-06T19:26:14.264Z,225
2017-04-06T19:26:42.500Z,250
2017-04-06T19:27:10.551Z,275
2017-04-06T19:27:38.789Z,295
2017-04-06T19:28:07.138Z,305
2017-04-06T19:28:35.332Z,310
2017-04-06T19:29:03.456Z,310
2017-04-06T19:29:31.726Z,305
2017-04-06T19:30:00.120Z,290
2017-04-06T19:30:28.365Z,265
2017-04-06T19:30:56.615Z,245
2017-04-06T19:31:24.932Z,225
2017-04-06T19:31:53.199Z,200
2017-04-06T19:32:21.407Z,185
2017-04-06T19:32:49.611Z,175
2017-04-06T19:33:17.848Z,165
2017-04-06T19:33:46.047Z,155
2017-04-06T19:34:14.413Z,145
2017-04-06T19:34:42.758Z,130
2017-04-06T19:35:11.043Z,120
2017-04-06T19:35:39.161Z,115
2017-04-06T19:36:07.462Z,110
2017-04-06T19:36:35.954Z,110
2017-04-06T19:37:04.256Z,110
2017-04-06T19:37:32.476Z,110
2017-04-06T19:38:00.973Z,110
2017-04-06T19:38:29.233Z,105
2017-04-06T19:38:57.408Z,110
2017-04-06T19:39:25.421Z,105
2017-04-06T19:39:53.449Z,105
2017-04-06T19:40:21.626Z,110
2017-04-06T19:40:49.975Z,115
2017-04-06T19:41:18.240Z,125
2017-04-06T19:41:48.566Z,140
2017-04-06T19:42:17.787Z,150
2017-04-06T19:42:46.032Z,160
2017-04-06T19:43:14.153Z,165
2017-04-06T19:43:42.441Z,175
2017-04-06T19:44:10.826Z,190
2017-04-06T19:44:38.997Z,205
2017-04-06T19:45:07.016Z,215
2017-04-06T19:45:35.207Z,225
2017-04-06T19:46:03.451Z,230
2017-04-06T19:46:31.747Z,240
2017-04-06T19:46:59.966Z,250
2017-04-06T19:47:28.296Z,260
2017-04-06T19:47:56.513Z,260
2017-04-06T19:48:24.848Z,255
2017-04-06T19:48:53.149Z,255
2017-04-06T19:49:21.313Z,245
2017-04-06T19:49:49.608Z,230
2017-04-06T19:50:17.804Z,215
2017-04-06T19:50:46.068Z,195
2017-04-06T19:51:14.339Z,180
2017-04-06T19:51:42.547Z,175
2017-04-06T19:52:10.633Z,160
2017-04-06T19:52:38.830Z,150
2017-04-06T19:53:07.012Z,145
2017-04-06T19:53:35.092Z,140
2017-04-06T19:54:03.670Z,140
2017-04-06T19:54:32.075Z,145
2017-04-06T19:55:00.301Z,150
2017-04-06T19:55:28.391Z,150
2017-04-06T19:55:56.558Z,155
2017-04-06T19:56:24.648Z,155
2017-04-06T19:56:52.916Z,160
2017-04-06T19:57:21.506Z,160
2017-04-06T19:57:49.652Z,155
2017-04-06T19:58:17.831Z,150
2017-04-06T19:58:46.028Z,145
2017-04-06T19:59:14.506Z,135
2017-04-06T19:59:42.774Z,130
2017-04-06T20:00:10.991Z,125
2017-04-06T20:00:39.159Z,120
2017-04-06T20:01:07.439Z,115
2017-04-06T20:01:35.592Z,105
2017-04-06T20:02:03.734Z,100
2017-04-06T20:02:31.818Z,95
2017-04-06T20:03:00.059Z,90
2017-04-06T20:03:28.225Z,85
2017-04-06T20:03:56.421Z,85
2017-04-06T20:04:24.686Z,80
2017-04-06T20:04:52.706Z,80
2017-04-06T20:05:20.980Z,75
2017-04-06T20:05:49.205Z,75
2017-04-06T20:06:17.425Z,70
2017-04-06T20:06:45.541Z,70
2017-04-06T20:07:13.914Z,65
2017-04-06T20:07:42.101Z,65
2017-04-06T20:08:10.349Z,60
2017-04-06T20:08:38.529Z,60
2017-04-06T20:09:06.808Z,60
2017-04-06T20:09:35.082Z,55
2017-04-06T20:10:03.370Z,55
2017-04-06T20:10:31.560Z,55
2017-04-06T20:10:59.847Z,55
2017-04-06T20:11:28.049Z,55
2017-04-06T20:11:56.247Z,50
2017-04-06T20:12:24.360Z,50
2017-04-06T20:12:52.614Z,55
2017-04-06T20:13:20.931Z,55
2017-04-06T20:13:49.004Z,55
2017-04-06T20:14:17.181Z,55
2017-04-06T20:14:45.400Z,55
2017-04-06T20:15:13.513Z,55
2017-04-06T20:15:41.613Z,60
2017-04-06T20:16:09.800Z,60
2017-04-06T20:16:38.023Z,60
2017-04-06T20:17:06.288Z,60
2017-04-06T20:17:34.534Z,60
2017-04-06T20:18:02.666Z,60
2017-04-06T20:18:30.830Z,60
2017-04-06T20:18:59.060Z,60
2017-04-06T20:19:27.497Z,60
2017-04-06T20:19:55.696Z,55
2017-04-06T20:20:23.983Z,55
2017-04-06T20:20:52.138Z,55
2017-04-06T20:21:20.381Z,55
2017-04-06T20:21:48.550Z,50
2017-04-06T20:22:16.812Z,50
2017-04-06T20:22:45.120Z,50
2017-04-06T20:23:13.389Z,50
2017-04-06T20:23:41.765Z,50
2017-04-06T20:24:10.033Z,50
2017-04-06T20:24:38.417Z,50
2017-04-06T20:25:06.535Z,50
2017-04-06T20:25:34.732Z,50
2017-04-06T20:26:02.877Z,55
2017-04-06T20:26:30.957Z,55
2017-04-06T20:26:59.315Z,55
2017-04-06T20:27:27.414Z,55
2017-04-06T20:27:55.590Z,55
2017-04-06T20:28:23.803Z,55
2017-04-06T20:28:51.867Z,55
2017-04-06T20:29:19.954Z,55
2017-04-06T20:29:48.139Z,55
2017-04-06T20:30:16.438Z,50
2017-04-06T20:30:44.498Z,50
2017-04-06T20:31:12.727Z,45
2017-04-06T20:31:40.998Z,40
2017-04-06T20:32:09.247Z,35
2017-04-06T20:32:37.409Z,25
2017-04-06T20:33:05.531Z,25
2017-04-06T20:33:33.782Z,20
2017-04-06T20:34:01.956Z,15
2017-04-06T20:34:30.293Z,15
2017-04-06T20:34:58.558Z,10
2017-04-06T20:35:26.654Z,10
2017-04-06T20:35:54.869Z,10
2017-04-06T20:36:23.057Z,10
2017-04-06T20:36:51.189Z,10
2017-04-06T20:37:19.309Z,10
2017-04-06T20:37:47.603Z,5
2017-04-06T20:38:15.833Z,5
2017-04-06T20:38:44.132Z,5
2017-04-06T20:39:12.432Z,5
2017-04-06T20:39:40.617Z,5
2017-04-06T20:40:08.821Z,5
2017-04-06T20:40:37.133Z,5
2017-04-06T20:41:05.392Z,5
2017-04-06T20:41:33.648Z,5
2017-04-06T20:42:01.821Z,5
2017-04-06T20:42:30.049Z,5
2017-04-06T20:42:58.237Z,10
2017-04-06T20:43:26.530Z,10
2017-04-06T20:43:54.807Z,10
2017-04-06T20:44:23.059Z,10
2017-04-06T20:44:51.474Z,10
2017-04-06T20:45:19.771Z,10
2017-04-06T20:45:48.104Z,10
2017-04-06T20:46:16.285Z,10
2017-04-06T20:46:44.485Z,10
2017-04-06T20:47:12.645Z,10
2017-04-06T20:47:40.939Z,10
2017-04-06T20:48:09.033Z,5
2017-04-06T20:48:37.272Z,5
2017-04-06T20:49:05.620Z,5
2017-04-06T20:49:33.907Z,5
2017-04-06T20:50:02.142Z,5
2017-04-06T20:50:30.462Z,5
2017-04-06T20:50:58.727Z,5
2017-04-06T20:51:26.675Z,5
2017-04-06T20:51:54.821Z,5
2017-04-06T20:52:23.017Z,5
2017-04-06T20:52:51.149Z,5
2017-04-06T20:53:19.360Z,5
2017-04-06T20:53:47.590Z,5
2017-04-06T20:54:15.856Z,5
2017-04-06T20:54:44.134Z,5
2017-04-06T20:55:12.289Z,5
2017-04-06T20:55:40.387Z,5
2017-04-06T20:56:08.585Z,5
2017-04-06T20:56:36.879Z,5
2017-04-06T20:57:05.132Z,5
2017-04-06T20:57:33.316Z,5
2017-04-06T20:58:01.549Z,5
2017-04-06T20:58:29.810Z,5
2017-04-06T20:58:58.074Z,5
2017-04-06T20:59:26.235Z,5
2017-04-06T20:59:54.565Z,5
2017-04-06T21:00:22.722Z,5
2017-04-06T21:00:50.994Z,0
2017-04-06T21:01:19.316Z,0
2017-04-06T21:01:47.584Z,0
2017-04-06T21:02:15.712Z,0
2017-04-06T21:02:43.957Z,0
2017-04-06T21:03:12.221Z,0
2017-04-06T21:03:40.408Z,0
2017-04-06T21:04:08.701Z,0
2017-04-06T21:04:36.876Z,0
2017-04-06T21:05:04.966Z,0
2017-04-06T21:05:33.256Z,0
2017-04-06T21:06:01.423Z,0
2017-04-06T21:06:29.619Z,0
2017-04-06T21:06:57.809Z,0
2017-04-06T21:07:26.010Z,0
2017-04-06T21:07:54.238Z,0
2017-04-06T21:08:22.528Z,0
2017-04-06T21:08:50.777Z,0
2017-04-06T21:09:18.940Z,0
2017-04-06T21:09:47.103Z,0
2017-04-06T21:10:16.393Z,0
2017-04-06T21:10:44.621Z,0
2017-04-06T21:11:12.850Z,0
2017-04-06T21:11:40.936Z,0
2017-04-06T21:12:09.157Z,0
2017-04-06T21:12:37.319Z,0
2017-04-06T21:13:05.570Z,0
2017-04-06T21:13:33.741Z,0
2017-04-06T21:14:01.915Z,0
2017-04-06T21:14:30.142Z,0
2017-04-06T21:14:58.371Z,0
2017-04-06T21:15:26.463Z,0
2017-04-06T21:15:54.605Z,0
2017-04-06T21:16:22.773Z,0
2017-04-06T21:16:51.056Z,0
2017-04-06T21:17:19.260Z,0
2017-04-06T21:17:47.309Z,0
2017-04-06T21:18:15.567Z,0
2017-04-06T21:18:43.691Z,0
2017-04-06T21:19:11.852Z,0
2017-04-06T21:19:40.032Z,0
2017-04-06T21:20:08.408Z,0
2017-04-06T21:20:36.472Z,0
2017-04-06T21:21:04.753Z,0
2017-04-06T21:21:32.992Z,0
2017-04-06T21:22:01.260Z,0
2017-04-06T21:22:29.327Z,0
2017-04-06T21:22:57.650Z,0
2017-04-06T21:23:25.860Z,0
2017-04-06T21:23:54.147Z,0
2017-04-06T21:24:22.392Z,0
2017-04-06T21:24:50.549Z,0
2017-04-06T21:25:18.793Z,0
2017-04-06T21:25:47.056Z,0
2017-04-06T21:26:15.335Z,0
2017-04-06T21:26:43.611Z,0
2017-04-06T21:27:11.879Z,0
2017-04-06T21:27:40.031Z,0
2017-04-06T21:28:08.178Z,0
2017-04-06T21:28:36.402Z,0
2017-04-06T21:29:04.591Z,0
2017-04-06T21:29:33.162Z,0
2017-04-06T21:30:01.460Z,0
2017-04-06T21:30:29.654Z,0
2017-04-06T21:30:58.282Z,0
2017-04-06T21:31:26.520Z,0
2017-04-06T21:31:54.743Z,0
2017-04-06T21:32:23.017Z,0
2017-04-06T21:32:51.317Z,0
2017-04-06T21:33:19.423Z,0
2017-04-06T21:33:47.699Z,0
2017-04-06T21:34:15.888Z,0
2017-04-06T21:34:44.163Z,0
2017-04-06T21:35:12.538Z,0
2017-04-06T21:35:40.775Z,0
2017-04-06T21:36:09.018Z,0
2017-04-06T21:36:37.318Z,0
2017-04-06T21:37:05.498Z,0
2017-04-06T21:37:33.676Z,0
2017-04-06T21:38:01.980Z,0
2017-04-06T21:38:30.190Z,0
2017-04-06T21:38:58.422Z,0
2017-04-06T21:39:26.622Z,0
2017-04-06T21:39:54.905Z,0
2017-04-06T21:40:23.197Z,0
2017-04-06T21:40:51.432Z,0
2017-04-06T21:41:19.689Z,0
2017-04-06T21:41:48.368Z,0
2017-04-06T21:42:16.370Z,0
2017-04-06T21:42:44.654Z,0
2017-04-06T21:43:13.006Z,0
2017-04-06T21:43:41.300Z,0
2017-04-06T21:44:09.486Z,0
2017-04-06T21:44:37.736Z,0
2017-04-06T21:45:06.001Z,0
2017-04-06T21:45:34.335Z,0
2017-04-06T21:46:02.642Z,0
2017-04-06T21:46:30.887Z,0
2017-04-06T21:46:59.073Z,0
2017-04-06T21:47:27.199Z,0
2017-04-06T21:47:55.481Z,0
2017-04-06T21:48:23.446Z,0
2017-04-06T21:48:51.651Z,0
2017-04-06T21:49:19.701Z,0
2017-04-06T21:49:47.892Z,0
2017-04-06T21:50:16.175Z,0
2017-04-06T21:50:44.490Z,0
2017-04-06T21:51:12.630Z,0
2017-04-06T21:51:40.912Z,0
2017-04-06T21:52:09.090Z,0
2017-04-06T21:52:37.353Z,0
2017-04-06T21:53:05.466Z,0
2017-04-06T21:53:33.346Z,0
2017-04-06T21:54:01.424Z,0
2017-04-06T21:54:29.684Z,0
2017-04-06T21:54:57.848Z,0
2017-04-06T21:55:26.001Z,0
2017-04-06T21:55:54.286Z,0
2017-04-06T21:56:22.546Z,0
2017-04-06T21:56:50.811Z,0
2017-04-06T21:57:19.098Z,0
2017-04-06T21:57:47.377Z,0
2017-04-06T21:58:15.643Z,0
2017-04-06T21:58:43.881Z,0
2017-04-06T21:59:11.851Z,0
2017-04-06T21:59:40.105Z,0
2017-04-06T22:00:08.420Z,0
2017-04-06T22:00:36.529Z,0
2017-04-06T22:01:04.650Z,0
2017-04-06T22:01:32.788Z,0
2017-04-06T22:02:01.051Z,0
2017-04-06T22:02:29.365Z,0
2017-04-06T22:02:57.619Z,0
2017-04-06T22:03:25.815Z,0
2017-04-06T22:03:54.076Z,0
2017-04-06T22:04:22.366Z,0
2017-04-06T22:04:50.651Z,0
2017-04-06T22:05:19.025Z,0
2017-04-06T22:05:47.306Z,0
2017-04-06T22:06:15.440Z,0
2017-04-06T22:06:43.659Z,0
2017-04-06T22:07:11.845Z,0
2017-04-06T22:07:40.100Z,0
2017-04-06T22:08:08.258Z,0
2017-04-06T22:08:36.397Z,0
2017-04-06T22:09:04.563Z,0
2017-04-06T22:09:32.853Z,0
2017-04-06T22:10:01.159Z,0
2017-04-06T22:10:29.415Z,0
2017-04-06T22:10:57.669Z,0
2017-04-06T22:11:25.943Z,0
2017-04-06T22:11:54.087Z,0
2017-04-06T22:12:22.342Z,0
2017-04-06T22:12:50.584Z,0
2017-04-06T22:13:18.681Z,0
2017-04-06T22:13:46.836Z,0
2017-04-06T22:14:14.970Z,0
2017-04-06T22:14:43.257Z,0
2017-04-06T22:15:11.478Z,0
2017-04-06T22:15:39.598Z,0
2017-04-06T22:16:07.839Z,0
2017-04-06T22:16:36.093Z,0
2017-04-06T22:17:04.306Z,0
2017-04-06T22:17:32.614Z,0
2017-04-06T22:18:00.901Z,0
2017-04-06T22:18:29.066Z,0
2017-04-06T22:18:57.302Z,0
2017-04-06T22:19:25.439Z,0
2017-04-06T22:19:53.615Z,0
2017-04-06T22:20:21.755Z,0
2017-04-06T22:20:49.955Z,0
2017-04-06T22:21:18.024Z,0
2017-04-06T22:21:46.326Z,0
2017-04-06T22:22:14.545Z,0
2017-04-06T22:22:42.799Z,0
2017-04-06T22:23:10.956Z,0
2017-04-06T22:23:39.989Z,0
2017-04-06T22:24:08.304Z,0
2017-04-06T22:24:36.583Z,0
2017-04-06T22:25:04.844Z,0
2017-04-06T22:25:33.159Z,0
2017-04-06T22:26:01.343Z,0
2017-04-06T22:26:29.557Z,0
2017-04-06T22:26:57.780Z,0
2017-04-06T22:27:25.937Z,0
2017-04-06T22:27:54.249Z,0
2017-04-06T22:28:22.543Z,0
2017-04-06T22:28:50.815Z,0
2017-04-06T22:29:18.870Z,0
2017-04-06T22:29:47.087Z,0
2017-04-06T22:30:15.262Z,0
2017-04-06T22:30:43.414Z,0
2017-04-06T22:31:11.551Z,0
2017-04-06T22:31:39.804Z,0
2017-04-06T22:32:08.095Z,0
2017-04-06T22:32:36.237Z,0
2017-04-06T22:33:04.422Z,0
2017-04-06T22:33:32.555Z,0
2017-04-06T22:34:00.756Z,0
2017-04-06T22:34:28.946Z,0
2017-04-06T22:34:57.261Z,0
2017-04-06T22:35:25.504Z,0
2017-04-06T22:35:53.609Z,0
2017-04-06T22:36:21.629Z,0
2017-04-06T22:36:49.930Z,0
2017-04-06T22:37:18.179Z,0
2017-04-06T22:37:46.487Z,0
2017-04-06T22:38:14.752Z,0
2017-04-06T22:38:43.123Z,0
2017-04-06T22:39:11.173Z,0
2017-04-06T22:39:39.350Z,0
2017-04-06T22:40:07.613Z,0
2017-04-06T22:40:35.984Z,0
2017-04-06T22:41:04.237Z,0
2017-04-06T22:41:32.369Z,0
2017-04-06T22:42:00.581Z,0
2017-04-06T22:42:28.778Z,0
2017-04-06T22:42:57.087Z,0
2017-04-06T22:43:25.284Z,0
2017-04-06T22:43:53.306Z,0
2017-04-06T22:44:21.529Z,0
2017-04-06T22:44:49.601Z,0
2017-04-06T22:45:17.650Z,0
2017-04-06T22:45:45.796Z,0
2017-04-06T22:46:13.715Z,0
2017-04-06T22:46:41.899Z,0
2017-04-06T22:47:10.049Z,0
2017-04-06T22:47:38.227Z,0
2017-04-06T22:48:06.593Z,0
2017-04-06T22:48:34.817Z,0
2017-04-06T22:49:02.948Z,0
2017-04-06T22:49:31.190Z,0
2017-04-06T22:49:59.411Z,0
2017-04-06T22:50:27.600Z,0
2017-04-06T22:50:56.147Z,0
2017-04-06T22:51:24.426Z,0
2017-04-06T22:51:52.671Z,0
2017-04-06T22:52:20.872Z,0
2017-04-06T22:52:49.154Z,0
2017-04-06T22:53:17.402Z,0
2017-04-06T22:53:45.694Z,0
2017-04-06T22:54:13.886Z,0
2017-04-06T22:54:42.132Z,0
2017-04-06T22:55:10.332Z,0
2017-04-06T22:55:38.517Z,0
2017-04-06T22:56:06.508Z,0
2017-04-06T22:56:34.662Z,0
2017-04-06T22:57:02.928Z,0
2017-04-06T22:57:31.109Z,0
2017-04-06T22:57:59.267Z,0
2017-04-06T22:58:27.516Z,0
2017-04-06T22:58:55.666Z,0
2017-04-06T22:59:23.971Z,0
2017-04-06T22:59:52.240Z,0
2017-04-06T23:00:21.127Z,0
2017-04-06T23:00:49.518Z,0
2017-04-06T23:01:17.540Z,0
2017-04-06T23:01:45.830Z,0
2017-04-06T23:02:14.131Z,0
2017-04-06T23:02:42.455Z,0
2017-04-06T23:03:10.589Z,0
2017-04-06T23:03:38.686Z,0